createdAt,value
2019-01-27T00:02:18.682Z,2.90
2019-01-27T00:04:47.393Z,2.90
2019-01-27T00:07:16.133Z,2.90
2019-01-27T00:09:44.835Z,2.90
2019-01-27T00:12:13.484Z,2.90
2019-01-27T00:14:42.293Z,2.90
2019-01-27T00:17:11.057Z,2.90
2019-01-27T00:19:39.584Z,2.90
2019-01-27T00:22:08.245Z,2.90
2019-01-27T00:24:36.980Z,2.90
2019-01-27T00:27:05.609Z,3.00
2019-01-27T00:29:34.271Z,3.10
2019-01-27T00:32:02.985Z,3.00
2019-01-27T00:34:31.655Z,3.00
2019-01-27T00:37:00.313Z,3.10
2019-01-27T00:39:29.005Z,3.10
2019-01-27T00:41:57.652Z,3.10
2019-01-27T00:44:26.307Z,3.10
2019-01-27T00:46:55.008Z,3.10
2019-01-27T00:49:23.648Z,3.10
2019-01-27T00:51:52.300Z,3.10
2019-01-27T00:54:21.037Z,3.10
2019-01-27T00:56:51.249Z,3.10
2019-01-27T00:59:20.359Z,3.00
2019-01-27T01:01:49.091Z,3.10
2019-01-27T01:04:17.777Z,3.00
2019-01-27T01:06:46.440Z,3.10
2019-01-27T01:09:15.428Z,3.10
2019-01-27T01:11:44.092Z,3.10
2019-01-27T01:14:12.776Z,3.00
2019-01-27T01:16:41.503Z,3.10
2019-01-27T01:19:10.146Z,3.10
2019-01-27T01:21:38.809Z,3.10
2019-01-27T01:24:07.511Z,3.20
2019-01-27T01:26:36.173Z,3.10
2019-01-27T01:29:04.816Z,3.10
2019-01-27T01:31:33.532Z,3.10
2019-01-27T01:34:02.207Z,3.10
2019-01-27T01:36:32.792Z,3.10
2019-01-27T01:39:01.212Z,3.10
2019-01-27T01:41:29.876Z,3.00
2019-01-27T01:43:58.512Z,3.00
2019-01-27T01:46:27.219Z,3.00
2019-01-27T01:48:55.884Z,3.00
2019-01-27T01:51:24.542Z,3.00
2019-01-27T01:53:53.267Z,2.90
2019-01-27T01:56:21.923Z,2.80
2019-01-27T01:58:50.590Z,2.80
2019-01-27T02:01:19.324Z,2.80
2019-01-27T02:03:47.982Z,2.80
2019-01-27T02:06:16.640Z,2.90
2019-01-27T02:08:45.399Z,2.90
2019-01-27T02:11:14.050Z,2.90
2019-01-27T02:13:42.713Z,3.00
2019-01-27T02:16:11.399Z,3.00
2019-01-27T02:18:40.034Z,3.00
2019-01-27T02:21:08.682Z,3.00
2019-01-27T02:23:37.352Z,3.00
2019-01-27T02:26:07.202Z,2.90
2019-01-27T02:28:35.876Z,2.90
2019-01-27T02:31:04.558Z,2.90
2019-01-27T02:33:33.224Z,2.80
2019-01-27T02:36:01.960Z,2.80
2019-01-27T02:38:32.451Z,2.80
2019-01-27T02:41:01.150Z,2.80
2019-01-27T02:43:29.804Z,2.90
2019-01-27T02:45:58.491Z,2.90
2019-01-27T02:48:27.301Z,2.90
2019-01-27T02:50:55.945Z,2.90
2019-01-27T02:53:24.661Z,2.80
2019-01-27T02:55:53.321Z,2.80
2019-01-27T02:58:21.996Z,2.90
2019-01-27T03:00:50.681Z,2.80
2019-01-27T03:03:19.344Z,2.80
2019-01-27T03:06:01.325Z,2.80
2019-01-27T03:08:31.555Z,2.80
2019-01-27T03:11:00.201Z,2.80
2019-01-27T03:13:28.882Z,2.80
2019-01-27T03:15:57.532Z,2.70
2019-01-27T03:18:26.230Z,2.80
2019-01-27T03:20:54.924Z,2.80
2019-01-27T03:23:23.583Z,2.80
2019-01-27T03:25:52.241Z,2.80
2019-01-27T03:28:20.956Z,2.80
2019-01-27T03:30:51.179Z,2.70
2019-01-27T03:33:19.828Z,2.70
2019-01-27T03:35:48.533Z,2.70
2019-01-27T03:38:17.170Z,2.70
2019-01-27T03:40:45.840Z,2.80
2019-01-27T03:43:14.691Z,2.70
2019-01-27T03:45:43.372Z,2.70
2019-01-27T03:48:12.022Z,2.70
2019-01-27T03:50:40.726Z,2.70
2019-01-27T03:53:09.427Z,2.80
2019-01-27T03:55:38.085Z,2.80
2019-01-27T03:58:06.801Z,2.80
2019-01-27T04:00:35.446Z,2.70
2019-01-27T04:03:08.629Z,2.70
2019-01-27T04:06:00.511Z,2.70
2019-01-27T04:08:29.195Z,2.70
2019-01-27T04:10:58.080Z,2.70
2019-01-27T04:13:26.725Z,2.70
2019-01-27T04:15:55.412Z,2.70
2019-01-27T04:18:24.485Z,2.70
2019-01-27T04:20:53.128Z,2.70
2019-01-27T04:23:23.362Z,2.80
2019-01-27T04:25:53.396Z,2.80
2019-01-27T04:28:22.085Z,2.80
2019-01-27T04:30:50.747Z,2.80
2019-01-27T04:33:19.456Z,2.70
2019-01-27T04:35:48.101Z,2.60
2019-01-27T04:38:17.849Z,2.60
2019-01-27T04:40:46.607Z,2.60
2019-01-27T04:43:15.293Z,2.70
2019-01-27T04:45:43.927Z,2.70
2019-01-27T04:48:12.678Z,2.70
2019-01-27T04:50:41.343Z,2.70
2019-01-27T04:53:09.989Z,2.60
2019-01-27T04:55:38.742Z,2.60
2019-01-27T04:58:07.404Z,2.70
2019-01-27T05:00:36.045Z,2.70
2019-01-27T05:03:10.152Z,2.70
2019-01-27T05:05:40.351Z,2.70
2019-01-27T05:08:10.586Z,2.80
2019-01-27T05:10:39.293Z,2.80
2019-01-27T05:13:07.957Z,2.80
2019-01-27T05:15:38.582Z,2.80
2019-01-27T05:18:06.948Z,2.80
2019-01-27T05:20:36.305Z,2.80
2019-01-27T05:23:05.153Z,2.80
2019-01-27T05:25:33.830Z,2.80
2019-01-27T05:28:02.477Z,2.80
2019-01-27T05:30:35.564Z,2.90
2019-01-27T05:33:05.846Z,2.90
2019-01-27T05:35:38.608Z,2.80
2019-01-27T05:38:07.275Z,2.90
2019-01-27T05:40:35.969Z,2.80
2019-01-27T05:43:04.685Z,2.80
2019-01-27T05:45:33.336Z,2.70
2019-01-27T05:48:02.029Z,2.60
2019-01-27T05:50:30.828Z,2.60
2019-01-27T05:52:59.501Z,2.60
2019-01-27T05:55:28.206Z,2.60
2019-01-27T05:57:56.872Z,2.60
2019-01-27T06:00:42.662Z,2.60
2019-01-27T06:03:11.296Z,2.70
2019-01-27T06:05:39.942Z,2.80
2019-01-27T06:08:08.716Z,2.70
2019-01-27T06:10:37.406Z,2.80
2019-01-27T06:13:06.059Z,2.80
2019-01-27T06:15:34.770Z,2.90
2019-01-27T06:18:03.442Z,2.90
2019-01-27T06:20:32.143Z,2.90
2019-01-27T06:23:00.938Z,2.90
2019-01-27T06:25:29.629Z,2.90
2019-01-27T06:27:58.258Z,3.00
2019-01-27T06:30:28.037Z,2.90
2019-01-27T06:33:01.251Z,2.80
2019-01-27T06:35:30.089Z,2.70
2019-01-27T06:38:00.085Z,2.70
2019-01-27T06:40:28.745Z,2.80
2019-01-27T06:42:57.416Z,2.80
2019-01-27T06:45:26.118Z,2.90
2019-01-27T06:47:54.834Z,3.00
2019-01-27T06:50:23.500Z,3.00
2019-01-27T06:52:52.182Z,3.00
2019-01-27T06:55:21.794Z,3.00
2019-01-27T06:57:50.450Z,3.10
2019-01-27T07:00:26.192Z,3.00
2019-01-27T07:03:01.834Z,3.10
2019-01-27T07:05:36.105Z,3.20
2019-01-27T07:08:22.593Z,3.20
2019-01-27T07:11:01.699Z,3.10
2019-01-27T07:13:33.153Z,3.20
2019-01-27T07:16:12.237Z,3.10
2019-01-27T07:18:43.205Z,3.20
2019-01-27T07:21:16.402Z,3.20
2019-01-27T07:23:48.855Z,3.30
2019-01-27T07:26:19.051Z,3.30
2019-01-27T07:28:52.735Z,3.30
2019-01-27T07:31:36.187Z,3.30
2019-01-27T07:34:15.690Z,3.30
2019-01-27T07:36:57.882Z,3.10
2019-01-27T07:39:28.160Z,3.20
2019-01-27T07:42:01.109Z,3.30
2019-01-27T07:44:31.365Z,3.20
2019-01-27T07:47:09.186Z,3.20
2019-01-27T07:49:51.511Z,3.10
2019-01-27T07:52:39.912Z,3.20
2019-01-27T07:55:25.240Z,3.20
2019-01-27T07:57:55.514Z,3.10
2019-01-27T08:00:25.732Z,3.10
2019-01-27T08:02:55.988Z,3.20
2019-01-27T08:05:42.215Z,3.20
2019-01-27T08:08:21.143Z,3.30
2019-01-27T08:10:51.467Z,3.40
2019-01-27T08:13:24.622Z,3.30
2019-01-27T08:16:11.584Z,3.40
2019-01-27T08:18:41.935Z,3.40
2019-01-27T08:21:21.184Z,3.40
2019-01-27T08:24:00.296Z,3.50
2019-01-27T08:26:30.579Z,3.60
2019-01-27T08:29:00.815Z,3.60
2019-01-27T08:31:39.967Z,3.60
2019-01-27T08:34:10.207Z,3.60
2019-01-27T08:36:40.445Z,3.50
2019-01-27T08:39:10.721Z,3.30
2019-01-27T08:41:53.645Z,3.20
2019-01-27T08:44:40.014Z,3.30
2019-01-27T08:47:08.669Z,3.20
2019-01-27T08:49:41.378Z,3.20
2019-01-27T08:52:10.093Z,3.20
2019-01-27T08:54:38.767Z,3.10
2019-01-27T08:57:07.455Z,3.10
2019-01-27T08:59:36.148Z,3.00
2019-01-27T09:02:21.618Z,3.00
2019-01-27T09:04:52.786Z,2.90
2019-01-27T09:07:28.994Z,2.90
2019-01-27T09:10:08.261Z,2.80
2019-01-27T09:12:44.217Z,2.90
2019-01-27T09:15:14.545Z,2.90
2019-01-27T09:17:45.852Z,2.90
2019-01-27T09:20:19.039Z,2.90
2019-01-27T09:22:49.238Z,2.90
2019-01-27T09:25:19.455Z,2.80
2019-01-27T09:27:49.741Z,2.80
2019-01-27T09:30:20.232Z,2.80
2019-01-27T09:32:53.545Z,2.70
2019-01-27T09:35:32.636Z,2.70
2019-01-27T09:38:02.986Z,2.50
2019-01-27T09:40:33.218Z,2.50
2019-01-27T09:43:20.887Z,2.20
2019-01-27T09:45:57.925Z,2.30
2019-01-27T09:48:22.956Z,2.30
2019-01-27T09:50:53.248Z,2.30
2019-01-27T09:53:46.051Z,2.30
2019-01-27T09:56:27.824Z,2.20
2019-01-27T09:59:01.038Z,2.30
2019-01-27T10:01:35.425Z,2.40
2019-01-27T10:04:05.680Z,2.40
2019-01-27T10:06:35.930Z,2.20
2019-01-27T10:09:09.420Z,2.20
2019-01-27T10:11:39.628Z,2.20
2019-01-27T10:14:20.278Z,2.30
2019-01-27T10:16:57.043Z,2.30
2019-01-27T10:19:46.280Z,2.30
2019-01-27T10:22:19.523Z,2.20
2019-01-27T10:24:58.704Z,2.20
2019-01-27T10:27:31.918Z,2.20
2019-01-27T10:30:10.070Z,2.20
2019-01-27T10:32:43.227Z,2.20
2019-01-27T10:35:13.499Z,2.20
2019-01-27T10:38:01.628Z,2.00
2019-01-27T10:40:39.754Z,1.80
2019-01-27T10:43:06.472Z,1.60
2019-01-27T10:45:52.880Z,1.60
2019-01-27T10:48:34.858Z,1.70
2019-01-27T10:51:10.730Z,1.70
2019-01-27T10:53:40.972Z,1.60
2019-01-27T10:56:13.839Z,1.40
2019-01-27T10:58:47.028Z,1.20
2019-01-27T11:01:30.184Z,1.30
2019-01-27T11:04:16.330Z,1.20
2019-01-27T11:06:52.300Z,1.20
2019-01-27T11:09:31.055Z,1.20
2019-01-27T11:12:10.439Z,1.00
2019-01-27T11:14:56.673Z,0.90
2019-01-27T11:24:30.017Z,0.90
2019-01-27T11:27:07.849Z,0.60
2019-01-27T11:29:46.555Z,0.50
2019-01-27T11:32:22.642Z,0.30
2019-01-27T11:35:18.327Z,0.30
2019-01-27T11:37:33.351Z,0.30
2019-01-27T11:40:18.589Z,0.30
2019-01-27T11:42:48.798Z,0.10
2019-01-27T11:45:21.780Z,0.00
2019-01-27T11:47:52.039Z,-0.10
2019-01-27T11:50:22.316Z,-0.10
2019-01-27T11:52:55.304Z,-0.10
2019-01-27T11:55:23.917Z,0.00
2019-01-27T11:57:52.604Z,-0.10
2019-01-27T12:00:23.986Z,-0.10
2019-01-27T12:02:52.689Z,-0.10
2019-01-27T12:05:21.544Z,-0.30
2019-01-27T12:07:50.427Z,-0.30
2019-01-27T12:10:19.067Z,-0.30
2019-01-27T12:12:48.033Z,-0.40
2019-01-27T12:15:18.798Z,-0.40
2019-01-27T12:17:47.422Z,-0.50
2019-01-27T12:20:16.117Z,-0.40
2019-01-27T12:22:44.871Z,-0.60
2019-01-27T12:25:15.320Z,-0.80
2019-01-27T12:27:46.425Z,-0.80
2019-01-27T12:30:19.210Z,-0.80
2019-01-27T12:32:47.923Z,-0.80
2019-01-27T12:35:19.591Z,-0.80
2019-01-27T12:37:48.317Z,-0.90
2019-01-27T12:40:19.279Z,-1.00
2019-01-27T12:42:49.734Z,-1.00
2019-01-27T12:45:18.422Z,-1.00
2019-01-27T12:47:47.098Z,-1.00
2019-01-27T12:50:17.658Z,-0.90
2019-01-27T12:52:48.010Z,-0.90
2019-01-27T12:55:16.743Z,-0.90
2019-01-27T12:57:45.409Z,-0.90
2019-01-27T13:00:35.182Z,-0.90
2019-01-27T13:03:03.867Z,-1.10
2019-01-27T13:05:32.540Z,-1.30
2019-01-27T13:08:01.256Z,-1.20
2019-01-27T13:10:29.924Z,-1.10
2019-01-27T13:12:58.562Z,-1.30
2019-01-27T13:15:27.328Z,-1.30
2019-01-27T13:18:01.446Z,-1.30
2019-01-27T13:20:29.482Z,-1.40
2019-01-27T13:22:58.234Z,-1.40
2019-01-27T13:25:26.892Z,-1.40
2019-01-27T13:27:55.583Z,-1.50
2019-01-27T13:30:25.868Z,-1.50
2019-01-27T13:32:54.509Z,-1.60
2019-01-27T13:35:24.835Z,-1.70
2019-01-27T13:37:53.563Z,-1.60
2019-01-27T13:40:24.555Z,-1.50
2019-01-27T13:42:58.193Z,-1.40
2019-01-27T13:45:31.392Z,-1.30
2019-01-27T13:48:01.592Z,-1.30
2019-01-27T13:50:30.238Z,-1.20
2019-01-27T13:52:59.007Z,-1.40
2019-01-27T13:55:29.758Z,-1.60
2019-01-27T13:57:58.418Z,-1.60
2019-01-27T14:00:29.121Z,-1.60
2019-01-27T14:02:57.856Z,-1.50
2019-01-27T14:05:26.611Z,-1.60
2019-01-27T14:07:55.362Z,-1.60
2019-01-27T14:10:25.958Z,-1.70
2019-01-27T14:12:57.823Z,-1.80
2019-01-27T14:15:31.793Z,-1.80
2019-01-27T14:18:00.571Z,-1.80
2019-01-27T14:20:30.418Z,-1.80
2019-01-27T14:22:59.052Z,-1.90
2019-01-27T14:25:34.269Z,-1.90
2019-01-27T14:28:01.647Z,-2.00
2019-01-27T14:30:36.855Z,-2.10
2019-01-27T14:33:05.640Z,-2.20
2019-01-27T14:35:34.355Z,-2.20
2019-01-27T14:38:03.031Z,-2.30
2019-01-27T14:40:31.745Z,-2.30
2019-01-27T14:43:00.939Z,-2.40
2019-01-27T14:45:33.358Z,-2.30
2019-01-27T14:48:03.192Z,-2.30
2019-01-27T14:50:35.214Z,-2.40
2019-01-27T14:53:03.859Z,-2.30
2019-01-27T14:55:32.698Z,-2.50
2019-01-27T14:58:01.364Z,-2.50
2019-01-27T15:00:36.203Z,-2.50
2019-01-27T15:03:02.420Z,-2.60
2019-01-27T15:05:31.017Z,-2.60
2019-01-27T15:08:00.802Z,-2.60
2019-01-27T15:10:33.364Z,-2.60
2019-01-27T15:13:03.119Z,-2.60
2019-01-27T15:15:31.783Z,-2.60
2019-01-27T15:18:03.224Z,-2.60
2019-01-27T15:20:34.493Z,-2.60
2019-01-27T15:23:06.070Z,-2.70
2019-01-27T15:25:37.278Z,-2.70
2019-01-27T15:28:06.002Z,-2.80
2019-01-27T15:30:39.239Z,-2.90
2019-01-27T15:33:12.536Z,-3.10
2019-01-27T15:35:43.100Z,-3.10
2019-01-27T15:38:11.519Z,-3.20
2019-01-27T15:40:41.736Z,-3.20
2019-01-27T15:43:14.025Z,-3.30
2019-01-27T15:45:44.240Z,-3.30
2019-01-27T15:48:21.806Z,-3.30
2019-01-27T15:51:12.479Z,-3.30
2019-01-27T15:53:44.092Z,-3.40
2019-01-27T15:56:15.472Z,-3.50
2019-01-27T15:58:51.540Z,-3.50
2019-01-27T16:01:23.243Z,-3.50
2019-01-27T16:03:54.740Z,-3.40
2019-01-27T16:06:23.446Z,-3.50
2019-01-27T16:08:53.635Z,-3.50
2019-01-27T16:11:36.481Z,-3.60
2019-01-27T16:14:09.925Z,-3.60
2019-01-27T16:16:39.105Z,-3.60
2019-01-27T16:19:11.812Z,-3.60
2019-01-27T16:21:42.000Z,-3.60
2019-01-27T16:24:16.603Z,-3.60
2019-01-27T16:26:45.270Z,-3.70
2019-01-27T16:29:17.324Z,-3.80
2019-01-27T16:31:51.028Z,-3.90
2019-01-27T16:34:24.273Z,-4.00
2019-01-27T16:36:54.139Z,-4.00
2019-01-27T16:39:22.877Z,-4.00
2019-01-27T16:41:53.091Z,-4.00
2019-01-27T16:44:23.383Z,-4.00
2019-01-27T16:46:53.645Z,-4.00
2019-01-27T16:49:24.238Z,-4.10
2019-01-27T16:51:53.606Z,-4.10
2019-01-27T16:54:30.232Z,-4.20
2019-01-27T16:59:59.882Z,-4.30
2019-01-27T17:02:28.970Z,-4.30
2019-01-27T17:05:00.591Z,-4.30
2019-01-27T17:07:50.268Z,-4.30
2019-01-27T17:10:19.063Z,-4.30
2019-01-27T17:12:52.418Z,-4.30
2019-01-27T17:15:30.807Z,-4.30
2019-01-27T17:18:04.536Z,-4.30
2019-01-27T17:20:36.037Z,-4.20
2019-01-27T17:23:06.334Z,-4.20
2019-01-27T17:25:34.973Z,-4.20
2019-01-27T17:28:11.729Z,-4.20
2019-01-27T17:30:40.408Z,-4.20
2019-01-27T17:33:12.180Z,-4.20
2019-01-27T17:35:43.219Z,-4.20
2019-01-27T17:38:14.471Z,-4.20
2019-01-27T17:40:43.138Z,-4.20
2019-01-27T17:43:13.427Z,-4.20
2019-01-27T17:45:45.148Z,-4.20
2019-01-27T17:48:15.404Z,-4.20
2019-01-27T17:50:47.415Z,-4.20
2019-01-27T17:53:18.702Z,-4.20
2019-01-27T17:55:54.566Z,-4.20
2019-01-27T17:58:31.454Z,-4.30
2019-01-27T18:01:18.971Z,-4.30
2019-01-27T18:04:03.846Z,-4.40
2019-01-27T18:06:38.461Z,-4.40
2019-01-27T18:09:16.975Z,-4.30
2019-01-27T18:11:57.490Z,-4.40
2019-01-27T18:14:35.244Z,-4.40
2019-01-27T18:17:04.586Z,-4.30
2019-01-27T18:19:39.073Z,-4.40
2019-01-27T18:22:09.629Z,-4.40
2019-01-27T18:24:39.760Z,-4.40
2019-01-27T18:27:08.645Z,-4.40
2019-01-27T18:29:39.342Z,-4.50
2019-01-27T18:32:11.182Z,-4.60
2019-01-27T18:34:39.864Z,-4.60
2019-01-27T18:37:11.251Z,-4.70
2019-01-27T18:39:40.000Z,-4.60
2019-01-27T18:42:09.206Z,-4.60
2019-01-27T18:44:41.017Z,-4.60
2019-01-27T18:47:09.788Z,-4.60
2019-01-27T18:49:38.634Z,-4.50
2019-01-27T18:52:07.493Z,-4.60
2019-01-27T18:56:22.089Z,-4.60
2019-01-27T18:59:07.888Z,-4.60
2019-01-27T19:01:54.817Z,-4.60
2019-01-27T19:04:41.388Z,-4.70
2019-01-27T19:07:29.135Z,-4.80
2019-01-27T19:10:00.818Z,-4.80
2019-01-27T19:12:31.561Z,-4.80
2019-01-27T19:15:13.356Z,-4.90
2019-01-27T19:18:01.261Z,-4.90
2019-01-27T19:20:43.410Z,-5.00
2019-01-27T19:23:13.732Z,-5.00
2019-01-27T19:25:45.648Z,-5.00
2019-01-27T19:28:16.017Z,-5.00
2019-01-27T19:31:03.058Z,-5.00
2019-01-27T19:33:36.744Z,-5.00
2019-01-27T19:36:23.582Z,-5.00
2019-01-27T19:39:02.707Z,-5.10
2019-01-27T19:41:51.231Z,-5.10
2019-01-27T19:44:30.062Z,-5.10
2019-01-27T19:47:18.364Z,-5.10
2019-01-27T19:49:56.324Z,-5.10
2019-01-27T19:52:35.713Z,-5.20
2019-01-27T19:55:08.605Z,-5.20
2019-01-27T19:57:38.902Z,-5.20
2019-01-27T20:00:15.787Z,-5.20
2019-01-27T20:02:52.086Z,-5.20
2019-01-27T20:05:34.111Z,-5.20
2019-01-27T20:08:07.241Z,-5.20
2019-01-27T20:10:49.756Z,-5.10
2019-01-27T20:13:26.308Z,-5.10
2019-01-27T20:16:05.395Z,-5.00
2019-01-27T20:21:53.841Z,-4.90
2019-01-27T20:24:37.193Z,-4.90
2019-01-27T20:27:07.559Z,-4.90
2019-01-27T20:32:44.954Z,-4.80
2019-01-27T20:35:25.637Z,-4.80
2019-01-27T20:38:12.336Z,-4.70
2019-01-27T20:40:48.585Z,-4.70
2019-01-27T20:43:18.881Z,-4.80
2019-01-27T20:45:58.269Z,-4.80
2019-01-27T20:48:31.273Z,-4.80
2019-01-27T20:51:01.531Z,-4.80
2019-01-27T20:53:31.783Z,-4.80
2019-01-27T20:56:06.655Z,-4.80
2019-01-27T20:58:51.978Z,-4.80
2019-01-27T21:01:32.493Z,-4.70
2019-01-27T21:04:07.062Z,-4.80
2019-01-27T21:06:41.447Z,-4.90
2019-01-27T21:09:14.481Z,-4.90
2019-01-27T21:11:55.045Z,-4.80
2019-01-27T21:14:28.233Z,-4.90
2019-01-27T21:17:01.274Z,-5.00
2019-01-27T21:19:31.676Z,-5.00
2019-01-27T21:22:00.405Z,-5.00
2019-01-27T21:24:31.327Z,-5.00
2019-01-27T21:27:06.470Z,-5.00
2019-01-27T21:29:32.177Z,-4.90
2019-01-27T21:32:14.738Z,-4.90
2019-01-27T21:34:43.390Z,-4.90
2019-01-27T21:37:18.010Z,-5.00
2019-01-27T21:40:17.072Z,-5.10
2019-01-27T21:42:47.666Z,-5.00
2019-01-27T21:45:22.342Z,-5.10
2019-01-27T21:47:51.074Z,-5.00
2019-01-27T21:50:22.763Z,-5.10
2019-01-27T21:52:54.262Z,-5.20
2019-01-27T21:55:27.351Z,-5.10
2019-01-27T21:57:58.828Z,-5.10
2019-01-27T22:00:27.489Z,-5.10
2019-01-27T22:02:58.941Z,-5.10
2019-01-27T22:05:30.485Z,-5.10
2019-01-27T22:07:59.135Z,-5.00
2019-01-27T22:10:30.912Z,-5.10
2019-01-27T22:12:59.566Z,-5.20
2019-01-27T22:15:29.764Z,-5.20
2019-01-27T22:17:58.407Z,-5.20
2019-01-27T22:20:27.171Z,-5.20
2019-01-27T22:22:55.864Z,-5.20
2019-01-27T22:25:24.543Z,-5.10
2019-01-27T22:27:53.288Z,-5.10
2019-01-27T22:30:21.950Z,-5.10
2019-01-27T22:32:52.224Z,-5.10
2019-01-27T22:35:20.940Z,-5.10
2019-01-27T22:37:50.820Z,-5.20
2019-01-27T22:40:23.368Z,-5.20
2019-01-27T22:42:57.678Z,-5.20
2019-01-27T22:45:26.335Z,-5.30
2019-01-27T22:47:55.063Z,-5.30
2019-01-27T22:50:23.712Z,-5.30
2019-01-27T22:52:53.771Z,-5.30
2019-01-27T22:55:25.913Z,-5.30
2019-01-27T22:57:54.645Z,-5.30
2019-01-27T23:00:40.050Z,-5.30
2019-01-27T23:03:14.559Z,-5.30
2019-01-27T23:05:43.226Z,-5.20
2019-01-27T23:08:11.972Z,-5.30
2019-01-27T23:10:40.634Z,-5.30
2019-01-27T23:13:09.296Z,-5.30
2019-01-27T23:15:37.991Z,-5.40
2019-01-27T23:18:06.662Z,-5.30
2019-01-27T23:20:35.336Z,-5.40
2019-01-27T23:23:04.039Z,-5.30
2019-01-27T23:25:32.697Z,-5.30
2019-01-27T23:28:01.350Z,-5.30
2019-01-27T23:30:30.082Z,-5.30
2019-01-27T23:32:58.770Z,-5.40
2019-01-27T23:35:27.436Z,-5.40
2019-01-27T23:37:56.186Z,-5.40
2019-01-27T23:40:24.883Z,-5.40
2019-01-27T23:42:53.563Z,-5.40
2019-01-27T23:45:22.264Z,-5.40
2019-01-27T23:47:50.966Z,-5.40
2019-01-27T23:50:19.697Z,-5.40
2019-01-27T23:52:48.404Z,-5.40
2019-01-27T23:55:17.036Z,-5.40
2019-01-27T23:57:45.726Z,-5.40
